sensor_id;sensor_type;location;lat;lon;timestamp;pressure;altitude;pressure_sealevel;temperature;humidity
55685;BME280;41883;49.544;8.646;2023-05-02T02:51:44;100749.25;;;9.60;nan
55685;BME280;41883;49.544;8.646;2023-05-02T02:56:36;100753.28;;;9.54;nan
55685;BME280;41883;49.544;8.646;2023-05-02T02:59:18;100754.66;;;9.48;nan
55685;BME280;41883;49.544;8.646;2023-05-02T03:01:46;100753.13;;;9.46;nan
55685;BME280;41883;49.544;8.646;2023-05-02T03:04:12;100760.50;;;9.42;nan
55685;BME280;41883;49.544;8.646;2023-05-02T03:06:39;100757.72;;;9.34;nan
55685;BME280;41883;49.544;8.646;2023-05-02T03:09:05;100756.59;;;9.27;nan
55685;BME280;41883;49.544;8.646;2023-05-02T03:11:31;100757.72;;;9.24;nan
55685;BME280;41883;49.544;8.646;2023-05-02T03:13:56;100755.34;;;9.21;nan
55685;BME280;41883;49.544;8.646;2023-05-02T03:18:55;100764.78;;;9.14;nan
55685;BME280;41883;49.544;8.646;2023-05-02T03:21:20;100777.69;;;9.07;nan
55685;BME280;41883;49.544;8.646;2023-05-02T03:23:45;100769.47;;;9.01;nan
55685;BME280;41883;49.544;8.646;2023-05-02T03:26:10;100772.50;;;8.96;nan
55685;BME280;41883;49.544;8.646;2023-05-02T03:28:36;100772.09;;;8.91;nan
55685;BME280;41883;49.544;8.646;2023-05-02T03:31:01;100778.63;;;8.87;nan
55685;BME280;41883;49.544;8.646;2023-05-02T03:33:26;100780.81;;;8.82;nan
55685;BME280;41883;49.544;8.646;2023-05-02T03:35:55;100775.97;;;8.77;nan
55685;BME280;41883;49.544;8.646;2023-05-02T03:38:20;100788.69;;;8.72;nan
55685;BME280;41883;49.544;8.646;2023-05-02T03:40:51;100789.94;;;8.68;nan
55685;BME280;41883;49.544;8.646;2023-05-02T03:43:16;100787.53;;;8.65;nan
55685;BME280;41883;49.544;8.646;2023-05-02T03:45:44;100794.91;;;8.61;nan
55685;BME280;41883;49.544;8.646;2023-05-02T03:48:10;100791.81;;;8.56;nan
55685;BME280;41883;49.544;8.646;2023-05-02T03:50:36;100802.59;;;8.53;nan
55685;BME280;41883;49.544;8.646;2023-05-02T03:53:01;100801.34;;;8.47;nan
55685;BME280;41883;49.544;8.646;2023-05-02T03:55:26;100804.25;;;8.44;nan
55685;BME280;41883;49.544;8.646;2023-05-02T03:57:52;100802.72;;;8.42;nan
55685;BME280;41883;49.544;8.646;2023-05-02T04:00:20;100809.53;;;8.44;nan
55685;BME280;41883;49.544;8.646;2023-05-02T04:02:46;100815.50;;;8.46;nan
55685;BME280;41883;49.544;8.646;2023-05-02T04:05:11;100817.28;;;8.46;nan
55685;BME280;41883;49.544;8.646;2023-05-02T04:07:36;100812.28;;;8.43;nan
55685;BME280;41883;49.544;8.646;2023-05-02T04:10:02;100814.78;;;8.44;nan
55685;BME280;41883;49.544;8.646;2023-05-02T04:12:27;100821.88;;;8.44;nan
55685;BME280;41883;49.544;8.646;2023-05-02T04:14:52;100828.69;;;8.46;nan
55685;BME280;41883;49.544;8.646;2023-05-02T04:17:19;100833.81;;;8.48;nan
55685;BME280;41883;49.544;8.646;2023-05-02T04:19:44;100844.94;;;8.52;nan
55685;BME280;41883;49.544;8.646;2023-05-02T04:22:10;100849.53;;;8.59;nan
55685;BME280;41883;49.544;8.646;2023-05-02T04:24:35;100855.13;;;8.66;nan
55685;BME280;41883;49.544;8.646;2023-05-02T04:27:00;100859.47;;;8.77;nan
55685;BME280;41883;49.544;8.646;2023-05-02T04:29:25;100863.97;;;8.86;nan
55685;BME280;41883;49.544;8.646;2023-05-02T04:31:51;100869.53;;;8.92;nan
55685;BME280;41883;49.544;8.646;2023-05-02T04:34:16;100874.72;;;9.04;nan
55685;BME280;41883;49.544;8.646;2023-05-02T04:36:43;100878.22;;;9.14;nan
55685;BME280;41883;49.544;8.646;2023-05-02T04:39:08;100874.91;;;9.22;nan
55685;BME280;41883;49.544;8.646;2023-05-02T04:41:34;100885.66;;;9.30;nan
55685;BME280;41883;49.544;8.646;2023-05-02T04:43:59;100883.88;;;9.40;nan
55685;BME280;41883;49.544;8.646;2023-05-02T04:46:24;100889.16;;;9.50;nan
55685;BME280;41883;49.544;8.646;2023-05-02T04:48:50;100881.97;;;9.62;nan
55685;BME280;41883;49.544;8.646;2023-05-02T04:51:16;100886.97;;;9.74;nan
55685;BME280;41883;49.544;8.646;2023-05-02T04:53:41;100897.28;;;9.87;nan
55685;BME280;41883;49.544;8.646;2023-05-02T04:56:06;100899.75;;;9.98;nan
55685;BME280;41883;49.544;8.646;2023-05-02T04:58:35;100899.91;;;10.07;nan
55685;BME280;41883;49.544;8.646;2023-05-02T05:01:00;100902.28;;;10.10;nan
55685;BME280;41883;49.544;8.646;2023-05-02T05:03:26;100897.69;;;10.12;nan
55685;BME280;41883;49.544;8.646;2023-05-02T05:05:52;100906.19;;;10.15;nan
55685;BME280;41883;49.544;8.646;2023-05-02T05:08:17;100906.44;;;10.22;nan
55685;BME280;41883;49.544;8.646;2023-05-02T05:10:42;100920.53;;;10.32;nan
55685;BME280;41883;49.544;8.646;2023-05-02T05:13:10;100918.28;;;10.47;nan
55685;BME280;41883;49.544;8.646;2023-05-02T05:15:38;100919.38;;;10.64;nan
55685;BME280;41883;49.544;8.646;2023-05-02T05:18:03;100933.38;;;10.84;nan
55685;BME280;41883;49.544;8.646;2023-05-02T05:20:28;100929.44;;;10.98;nan
55685;BME280;41883;49.544;8.646;2023-05-02T05:22:55;100933.03;;;11.07;nan
55685;BME280;41883;49.544;8.646;2023-05-02T05:25:20;100936.16;;;11.20;nan
55685;BME280;41883;49.544;8.646;2023-05-02T05:27:49;100938.88;;;11.38;nan
55685;BME280;41883;49.544;8.646;2023-05-02T05:30:16;100949.63;;;11.64;nan
55685;BME280;41883;49.544;8.646;2023-05-02T05:32:41;100952.97;;;11.84;nan
55685;BME280;41883;49.544;8.646;2023-05-02T05:35:08;100955.69;;;12.02;nan
55685;BME280;41883;49.544;8.646;2023-05-02T05:37:33;100968.88;;;12.11;nan
55685;BME280;41883;49.544;8.646;2023-05-02T05:40:01;100974.25;;;12.20;nan
55685;BME280;41883;49.544;8.646;2023-05-02T05:42:26;100964.00;;;12.25;nan
55685;BME280;41883;49.544;8.646;2023-05-02T05:44:51;100972.81;;;12.25;nan
55685;BME280;41883;49.544;8.646;2023-05-02T05:47:20;100978.19;;;12.16;nan
55685;BME280;41883;49.544;8.646;2023-05-02T05:49:54;100984.41;;;12.06;nan
55685;BME280;41883;49.544;8.646;2023-05-02T05:52:19;100985.38;;;12.05;nan
55685;BME280;41883;49.544;8.646;2023-05-02T05:54:45;100988.56;;;12.09;nan
55685;BME280;41883;49.544;8.646;2023-05-02T05:57:10;100985.69;;;12.20;nan
55685;BME280;41883;49.544;8.646;2023-05-02T05:59:35;100988.34;;;12.38;nan
55685;BME280;41883;49.544;8.646;2023-05-02T06:04:29;100985.28;;;12.51;nan
55685;BME280;41883;49.544;8.646;2023-05-02T06:06:54;100990.69;;;12.59;nan
55685;BME280;41883;49.544;8.646;2023-05-02T06:09:20;100996.22;;;12.66;nan
55685;BME280;41883;49.544;8.646;2023-05-02T06:11:48;100990.97;;;12.74;nan
55685;BME280;41883;49.544;8.646;2023-05-02T06:14:13;101004.09;;;12.58;nan
55685;BME280;41883;49.544;8.646;2023-05-02T06:16:38;101004.78;;;12.60;nan
55685;BME280;41883;49.544;8.646;2023-05-02T06:19:04;101006.59;;;12.59;nan
55685;BME280;41883;49.544;8.646;2023-05-02T06:21:29;101015.28;;;12.69;nan
55685;BME280;41883;49.544;8.646;2023-05-02T06:23:55;101011.81;;;12.69;nan
55685;BME280;41883;49.544;8.646;2023-05-02T06:26:20;101013.47;;;12.70;nan
55685;BME280;41883;49.544;8.646;2023-05-02T06:28:46;101018.50;;;12.73;nan
55685;BME280;41883;49.544;8.646;2023-05-02T06:31:12;101019.59;;;12.88;nan
55685;BME280;41883;49.544;8.646;2023-05-02T06:33:37;101018.31;;;12.92;nan
55685;BME280;41883;49.544;8.646;2023-05-02T06:36:03;101017.06;;;13.05;nan
55685;BME280;41883;49.544;8.646;2023-05-02T06:38:28;101020.75;;;13.12;nan
55685;BME280;41883;49.544;8.646;2023-05-02T06:40:53;101029.06;;;13.35;nan
55685;BME280;41883;49.544;8.646;2023-05-02T06:43:18;101031.97;;;13.58;nan
55685;BME280;41883;49.544;8.646;2023-05-02T06:45:44;101032.31;;;13.55;nan
55685;BME280;41883;49.544;8.646;2023-05-02T06:48:09;101036.13;;;13.52;nan
55685;BME280;41883;49.544;8.646;2023-05-02T06:50:35;101036.94;;;13.53;nan
55685;BME280;41883;49.544;8.646;2023-05-02T06:53:00;101045.75;;;13.53;nan
55685;BME280;41883;49.544;8.646;2023-05-02T06:55:26;101044.31;;;13.67;nan
55685;BME280;41883;49.544;8.646;2023-05-02T06:57:51;101053.25;;;14.00;nan
55685;BME280;41883;49.544;8.646;2023-05-02T07:00:17;101058.25;;;14.54;nan
55685;BME280;41883;49.544;8.646;2023-05-02T07:02:43;101053.56;;;14.89;nan
55685;BME280;41883;49.544;8.646;2023-05-02T07:05:08;101057.53;;;15.26;nan
55685;BME280;41883;49.544;8.646;2023-05-02T07:07:33;101055.50;;;15.44;nan
55685;BME280;41883;49.544;8.646;2023-05-02T07:09:58;101058.50;;;15.49;nan
55685;BME280;41883;49.544;8.646;2023-05-02T07:12:24;101060.50;;;15.39;nan
55685;BME280;41883;49.544;8.646;2023-05-02T07:14:50;101059.50;;;15.40;nan
55685;BME280;41883;49.544;8.646;2023-05-02T07:17:16;101063.16;;;15.47;nan
55685;BME280;41883;49.544;8.646;2023-05-02T07:19:41;101064.53;;;15.27;nan
55685;BME280;41883;49.544;8.646;2023-05-02T07:22:08;101058.41;;;15.10;nan
55685;BME280;41883;49.544;8.646;2023-05-02T07:24:33;101054.22;;;15.24;nan
55685;BME280;41883;49.544;8.646;2023-05-02T07:26:58;101057.13;;;15.54;nan
55685;BME280;41883;49.544;8.646;2023-05-02T07:29:24;101063.13;;;16.03;nan
55685;BME280;41883;49.544;8.646;2023-05-02T07:31:49;101061.84;;;16.76;nan
55685;BME280;41883;49.544;8.646;2023-05-02T07:34:15;101061.34;;;17.34;nan
55685;BME280;41883;49.544;8.646;2023-05-02T07:36:40;101064.13;;;17.55;nan
55685;BME280;41883;49.544;8.646;2023-05-02T07:39:05;101056.28;;;17.39;nan
55685;BME280;41883;49.544;8.646;2023-05-02T07:41:31;101063.81;;;17.20;nan
55685;BME280;41883;49.544;8.646;2023-05-02T07:43:56;101058.13;;;17.53;nan
55685;BME280;41883;49.544;8.646;2023-05-02T07:46:21;101055.97;;;18.08;nan
55685;BME280;41883;49.544;8.646;2023-05-02T07:48:48;101059.50;;;18.52;nan
55685;BME280;41883;49.544;8.646;2023-05-02T07:51:14;101057.03;;;18.72;nan
55685;BME280;41883;49.544;8.646;2023-05-02T07:53:39;101055.06;;;18.80;nan
55685;BME280;41883;49.544;8.646;2023-05-02T07:56:04;101058.38;;;18.82;nan
55685;BME280;41883;49.544;8.646;2023-05-02T07:58:31;101063.81;;;18.67;nan
55685;BME280;41883;49.544;8.646;2023-05-02T08:00:56;101065.03;;;18.86;nan
55685;BME280;41883;49.544;8.646;2023-05-02T08:03:21;101064.06;;;19.22;nan
55685;BME280;41883;49.544;8.646;2023-05-02T08:05:47;101068.59;;;19.57;nan
55685;BME280;41883;49.544;8.646;2023-05-02T08:08:12;101070.75;;;19.33;nan
55685;BME280;41883;49.544;8.646;2023-05-02T08:10:37;101079.56;;;18.99;nan
55685;BME280;41883;49.544;8.646;2023-05-02T08:13:03;101076.25;;;19.25;nan
55685;BME280;41883;49.544;8.646;2023-05-02T08:15:28;101078.81;;;19.40;nan
55685;BME280;41883;49.544;8.646;2023-05-02T08:17:54;101081.75;;;19.45;nan
55685;BME280;41883;49.544;8.646;2023-05-02T08:20:19;101085.69;;;19.21;nan
55685;BME280;41883;49.544;8.646;2023-05-02T08:22:46;101079.56;;;18.99;nan
55685;BME280;41883;49.544;8.646;2023-05-02T08:25:11;101084.00;;;18.70;nan
55685;BME280;41883;49.544;8.646;2023-05-02T08:27:36;101080.81;;;18.38;nan
55685;BME280;41883;49.544;8.646;2023-05-02T08:30:04;101082.38;;;18.69;nan
55685;BME280;41883;49.544;8.646;2023-05-02T08:32:31;101086.91;;;19.12;nan
55685;BME280;41883;49.544;8.646;2023-05-02T08:34:56;101083.41;;;19.46;nan
55685;BME280;41883;49.544;8.646;2023-05-02T08:37:21;101088.31;;;20.19;nan
55685;BME280;41883;49.544;8.646;2023-05-02T08:39:47;101093.03;;;20.78;nan
55685;BME280;41883;49.544;8.646;2023-05-02T08:42:12;101093.59;;;19.92;nan
55685;BME280;41883;49.544;8.646;2023-05-02T08:44:37;101095.38;;;19.15;nan
55685;BME280;41883;49.544;8.646;2023-05-02T08:47:03;101100.44;;;18.82;nan
55685;BME280;41883;49.544;8.646;2023-05-02T08:49:31;101092.97;;;18.19;nan
55685;BME280;41883;49.544;8.646;2023-05-02T08:51:56;101097.63;;;17.81;nan
55685;BME280;41883;49.544;8.646;2023-05-02T08:54:23;101103.41;;;17.70;nan
55685;BME280;41883;49.544;8.646;2023-05-02T08:56:49;101104.94;;;17.49;nan
55685;BME280;41883;49.544;8.646;2023-05-02T08:59:16;101108.09;;;17.38;nan
55685;BME280;41883;49.544;8.646;2023-05-02T09:01:41;101115.44;;;17.21;nan
55685;BME280;41883;49.544;8.646;2023-05-02T09:04:09;101116.31;;;18.11;nan
55685;BME280;41883;49.544;8.646;2023-05-02T09:06:35;101119.47;;;18.72;nan
55685;BME280;41883;49.544;8.646;2023-05-02T09:09:00;101122.84;;;18.96;nan
55685;BME280;41883;49.544;8.646;2023-05-02T09:11:25;101120.03;;;18.82;nan
55685;BME280;41883;49.544;8.646;2023-05-02T09:13:51;101130.91;;;18.44;nan
55685;BME280;41883;49.544;8.646;2023-05-02T09:18:42;101147.25;;;17.83;nan
55685;BME280;41883;49.544;8.646;2023-05-02T09:21:12;101136.19;;;17.34;nan
55685;BME280;41883;49.544;8.646;2023-05-02T09:23:41;101141.41;;;17.27;nan
55685;BME280;41883;49.544;8.646;2023-05-02T09:26:11;101145.53;;;17.15;nan
55685;BME280;41883;49.544;8.646;2023-05-02T09:28:37;101145.91;;;17.12;nan
55685;BME280;41883;49.544;8.646;2023-05-02T09:31:07;101155.13;;;17.09;nan
55685;BME280;41883;49.544;8.646;2023-05-02T09:33:34;101152.91;;;17.13;nan
55685;BME280;41883;49.544;8.646;2023-05-02T09:36:00;101146.47;;;17.22;nan
55685;BME280;41883;49.544;8.646;2023-05-02T09:38:26;101158.00;;;17.23;nan
55685;BME280;41883;49.544;8.646;2023-05-02T09:40:54;101148.84;;;17.40;nan
55685;BME280;41883;49.544;8.646;2023-05-02T09:43:20;101157.41;;;17.35;nan
55685;BME280;41883;49.544;8.646;2023-05-02T09:45:54;101165.88;;;17.39;nan
55685;BME280;41883;49.544;8.646;2023-05-02T09:48:20;101162.28;;;17.32;nan
55685;BME280;41883;49.544;8.646;2023-05-02T09:50:45;101162.53;;;17.22;nan
55685;BME280;41883;49.544;8.646;2023-05-02T09:53:10;101159.69;;;17.24;nan
55685;BME280;41883;49.544;8.646;2023-05-02T09:55:35;101167.03;;;17.22;nan
55685;BME280;41883;49.544;8.646;2023-05-02T09:58:01;101170.88;;;17.04;nan
55685;BME280;41883;49.544;8.646;2023-05-02T10:00:41;101163.72;;;17.19;nan
55685;BME280;41883;49.544;8.646;2023-05-02T10:03:07;101160.50;;;17.01;nan
55685;BME280;41883;49.544;8.646;2023-05-02T10:05:33;101170.19;;;17.02;nan
55685;BME280;41883;49.544;8.646;2023-05-02T10:08:00;101173.13;;;16.53;nan
55685;BME280;41883;49.544;8.646;2023-05-02T10:10:28;101173.97;;;16.53;nan
55685;BME280;41883;49.544;8.646;2023-05-02T10:12:53;101167.34;;;17.04;nan
55685;BME280;41883;49.544;8.646;2023-05-02T10:15:19;101174.69;;;17.25;nan
55685;BME280;41883;49.544;8.646;2023-05-02T10:17:50;101167.91;;;17.37;nan
55685;BME280;41883;49.544;8.646;2023-05-02T10:20:21;101165.25;;;18.04;nan
55685;BME280;41883;49.544;8.646;2023-05-02T10:22:46;101167.25;;;19.26;nan
55685;BME280;41883;49.544;8.646;2023-05-02T10:25:13;101165.91;;;20.00;nan
55685;BME280;41883;49.544;8.646;2023-05-02T10:27:38;101164.03;;;21.17;nan
55685;BME280;41883;49.544;8.646;2023-05-02T10:30:04;101161.41;;;22.29;nan
55685;BME280;41883;49.544;8.646;2023-05-02T10:32:31;101159.56;;;22.99;nan
55685;BME280;41883;49.544;8.646;2023-05-02T10:34:57;101160.53;;;22.73;nan
55685;BME280;41883;49.544;8.646;2023-05-02T10:37:26;101159.72;;;23.04;nan
55685;BME280;41883;49.544;8.646;2023-05-02T10:39:53;101158.38;;;23.64;nan
55685;BME280;41883;49.544;8.646;2023-05-02T10:42:19;101148.91;;;23.36;nan
55685;BME280;41883;49.544;8.646;2023-05-02T10:44:44;101151.25;;;24.13;nan
55685;BME280;41883;49.544;8.646;2023-05-02T10:47:20;101161.50;;;24.04;nan
55685;BME280;41883;49.544;8.646;2023-05-02T10:49:50;101159.88;;;23.85;nan
55685;BME280;41883;49.544;8.646;2023-05-02T10:54:51;101148.19;;;23.22;nan
55685;BME280;41883;49.544;8.646;2023-05-02T10:57:16;101152.41;;;23.11;nan
55685;BME280;41883;49.544;8.646;2023-05-02T10:59:41;101152.41;;;24.35;nan
55685;BME280;41883;49.544;8.646;2023-05-02T11:05:04;101147.03;;;21.03;nan
55685;BME280;41883;49.544;8.646;2023-05-02T11:07:36;101145.00;;;21.38;nan
55685;BME280;41883;49.544;8.646;2023-05-02T11:12:45;101146.41;;;23.60;nan
55685;BME280;41883;49.544;8.646;2023-05-02T11:15:14;101147.25;;;24.64;nan
55685;BME280;41883;49.544;8.646;2023-05-02T11:20:23;101153.34;;;23.24;nan
55685;BME280;41883;49.544;8.646;2023-05-02T11:22:49;101151.91;;;23.46;nan
55685;BME280;41883;49.544;8.646;2023-05-02T11:25:28;101147.44;;;23.59;nan
55685;BME280;41883;49.544;8.646;2023-05-02T11:27:53;101147.59;;;24.37;nan
55685;BME280;41883;49.544;8.646;2023-05-02T11:30:42;101147.38;;;23.22;nan
55685;BME280;41883;49.544;8.646;2023-05-02T11:35:33;101154.81;;;24.74;nan
55685;BME280;41883;49.544;8.646;2023-05-02T11:38:00;101159.06;;;25.71;nan
55685;BME280;41883;49.544;8.646;2023-05-02T11:40:27;101152.94;;;26.39;nan
55685;BME280;41883;49.544;8.646;2023-05-02T11:42:53;101162.44;;;26.82;nan
55685;BME280;41883;49.544;8.646;2023-05-02T11:45:18;101155.94;;;26.83;nan
55685;BME280;41883;49.544;8.646;2023-05-02T11:47:45;101155.31;;;25.36;nan
55685;BME280;41883;49.544;8.646;2023-05-02T11:50:11;101148.91;;;24.65;nan
55685;BME280;41883;49.544;8.646;2023-05-02T11:52:37;101142.81;;;24.21;nan
55685;BME280;41883;49.544;8.646;2023-05-02T11:55:04;101143.06;;;25.22;nan
55685;BME280;41883;49.544;8.646;2023-05-02T11:57:31;101136.25;;;26.59;nan
55685;BME280;41883;49.544;8.646;2023-05-02T11:59:57;101131.50;;;27.17;nan
55685;BME280;41883;49.544;8.646;2023-05-02T12:02:39;101133.66;;;27.49;nan
55685;BME280;41883;49.544;8.646;2023-05-02T12:05:12;101135.66;;;26.17;nan
55685;BME280;41883;49.544;8.646;2023-05-02T12:07:41;101137.69;;;24.50;nan
55685;BME280;41883;49.544;8.646;2023-05-02T12:10:07;101130.53;;;23.26;nan
55685;BME280;41883;49.544;8.646;2023-05-02T12:12:32;101133.75;;;22.78;nan
55685;BME280;41883;49.544;8.646;2023-05-02T12:15:02;101127.94;;;21.91;nan
55685;BME280;41883;49.544;8.646;2023-05-02T12:17:27;101148.91;;;21.42;nan
55685;BME280;41883;49.544;8.646;2023-05-02T12:19:54;101145.41;;;21.49;nan
55685;BME280;41883;49.544;8.646;2023-05-02T12:22:19;101147.47;;;21.47;nan
55685;BME280;41883;49.544;8.646;2023-05-02T12:24:45;101148.53;;;21.46;nan
55685;BME280;41883;49.544;8.646;2023-05-02T12:27:11;101153.28;;;21.44;nan
55685;BME280;41883;49.544;8.646;2023-05-02T12:29:40;101163.16;;;21.16;nan
55685;BME280;41883;49.544;8.646;2023-05-02T12:32:06;101161.69;;;20.74;nan
55685;BME280;41883;49.544;8.646;2023-05-02T12:34:34;101156.28;;;20.12;nan
55685;BME280;41883;49.544;8.646;2023-05-02T12:37:02;101154.41;;;20.13;nan
55685;BME280;41883;49.544;8.646;2023-05-02T12:39:38;101157.47;;;20.03;nan
55685;BME280;41883;49.544;8.646;2023-05-02T12:42:13;101150.47;;;20.09;nan
55685;BME280;41883;49.544;8.646;2023-05-02T12:44:39;101147.63;;;20.17;nan
55685;BME280;41883;49.544;8.646;2023-05-02T12:47:04;101149.56;;;20.36;nan
55685;BME280;41883;49.544;8.646;2023-05-02T12:49:31;101152.34;;;20.63;nan
55685;BME280;41883;49.544;8.646;2023-05-02T12:51:56;101148.88;;;20.83;nan
55685;BME280;41883;49.544;8.646;2023-05-02T12:54:22;101148.72;;;20.97;nan
55685;BME280;41883;49.544;8.646;2023-05-02T12:56:47;101138.16;;;21.03;nan
55685;BME280;41883;49.544;8.646;2023-05-02T12:59:25;101140.44;;;21.12;nan
55685;BME280;41883;49.544;8.646;2023-05-02T13:01:50;101141.63;;;20.83;nan
55685;BME280;41883;49.544;8.646;2023-05-02T13:04:15;101145.13;;;20.70;nan
55685;BME280;41883;49.544;8.646;2023-05-02T13:06:41;101143.72;;;20.94;nan
55685;BME280;41883;49.544;8.646;2023-05-02T13:09:06;101138.59;;;21.39;nan
55685;BME280;41883;49.544;8.646;2023-05-02T13:11:31;101139.41;;;21.60;nan
55685;BME280;41883;49.544;8.646;2023-05-02T13:13:56;101145.78;;;21.26;nan
55685;BME280;41883;49.544;8.646;2023-05-02T13:16:24;101143.94;;;20.93;nan
55685;BME280;41883;49.544;8.646;2023-05-02T13:18:50;101138.50;;;20.60;nan
55685;BME280;41883;49.544;8.646;2023-05-02T13:21:15;101134.69;;;20.47;nan
55685;BME280;41883;49.544;8.646;2023-05-02T13:23:40;101132.41;;;20.44;nan
55685;BME280;41883;49.544;8.646;2023-05-02T13:26:05;101136.28;;;20.22;nan
55685;BME280;41883;49.544;8.646;2023-05-02T13:28:32;101136.31;;;19.87;nan
55685;BME280;41883;49.544;8.646;2023-05-02T13:30:59;101131.31;;;19.77;nan
55685;BME280;41883;49.544;8.646;2023-05-02T13:33:25;101131.50;;;19.76;nan
55685;BME280;41883;49.544;8.646;2023-05-02T13:35:50;101122.22;;;19.78;nan
55685;BME280;41883;49.544;8.646;2023-05-02T13:38:15;101115.00;;;19.79;nan
55685;BME280;41883;49.544;8.646;2023-05-02T13:40:40;101120.53;;;19.70;nan
55685;BME280;41883;49.544;8.646;2023-05-02T13:43:05;101125.53;;;19.73;nan
55685;BME280;41883;49.544;8.646;2023-05-02T13:45:31;101125.34;;;19.53;nan
55685;BME280;41883;49.544;8.646;2023-05-02T13:47:56;101127.44;;;19.58;nan
55685;BME280;41883;49.544;8.646;2023-05-02T13:50:21;101123.75;;;19.66;nan
55685;BME280;41883;49.544;8.646;2023-05-02T13:52:46;101117.97;;;19.62;nan
55685;BME280;41883;49.544;8.646;2023-05-02T13:55:13;101128.19;;;19.73;nan
55685;BME280;41883;49.544;8.646;2023-05-02T13:57:39;101125.88;;;19.42;nan
55685;BME280;41883;49.544;8.646;2023-05-02T14:00:04;101127.88;;;19.05;nan
55685;BME280;41883;49.544;8.646;2023-05-02T14:02:32;101133.59;;;18.59;nan
55685;BME280;41883;49.544;8.646;2023-05-02T14:04:57;101137.13;;;18.45;nan
55685;BME280;41883;49.544;8.646;2023-05-02T14:07:22;101133.50;;;18.53;nan
55685;BME280;41883;49.544;8.646;2023-05-02T14:09:47;101130.19;;;18.51;nan
55685;BME280;41883;49.544;8.646;2023-05-02T14:12:12;101132.47;;;18.54;nan
55685;BME280;41883;49.544;8.646;2023-05-02T14:14:38;101134.41;;;18.60;nan
55685;BME280;41883;49.544;8.646;2023-05-02T14:17:03;101141.19;;;18.41;nan
55685;BME280;41883;49.544;8.646;2023-05-02T14:19:29;101137.44;;;18.20;nan
55685;BME280;41883;49.544;8.646;2023-05-02T14:21:55;101141.06;;;17.98;nan
55685;BME280;41883;49.544;8.646;2023-05-02T14:24:20;101139.41;;;17.97;nan
55685;BME280;41883;49.544;8.646;2023-05-02T14:26:46;101134.69;;;17.99;nan
55685;BME280;41883;49.544;8.646;2023-05-02T14:29:11;101152.59;;;17.98;nan
55685;BME280;41883;49.544;8.646;2023-05-02T14:31:37;101146.16;;;17.93;nan
55685;BME280;41883;49.544;8.646;2023-05-02T14:34:03;101140.16;;;17.91;nan
55685;BME280;41883;49.544;8.646;2023-05-02T14:36:28;101147.16;;;17.92;nan
55685;BME280;41883;49.544;8.646;2023-05-02T14:38:53;101145.78;;;17.81;nan
55685;BME280;41883;49.544;8.646;2023-05-02T14:41:18;101143.31;;;17.56;nan
55685;BME280;41883;49.544;8.646;2023-05-02T14:43:45;101156.50;;;17.58;nan
55685;BME280;41883;49.544;8.646;2023-05-02T14:46:10;101154.50;;;17.60;nan
55685;BME280;41883;49.544;8.646;2023-05-02T14:48:35;101147.94;;;17.62;nan
55685;BME280;41883;49.544;8.646;2023-05-02T14:51:04;101154.88;;;17.72;nan
55685;BME280;41883;49.544;8.646;2023-05-02T14:53:30;101159.31;;;17.94;nan
55685;BME280;41883;49.544;8.646;2023-05-02T14:55:55;101156.19;;;18.20;nan
55685;BME280;41883;49.544;8.646;2023-05-02T14:58:20;101156.22;;;18.57;nan
55685;BME280;41883;49.544;8.646;2023-05-02T15:00:46;101158.03;;;18.71;nan
55685;BME280;41883;49.544;8.646;2023-05-02T15:03:11;101160.38;;;18.59;nan
55685;BME280;41883;49.544;8.646;2023-05-02T15:05:36;101160.47;;;18.51;nan
55685;BME280;41883;49.544;8.646;2023-05-02T15:08:02;101154.78;;;18.24;nan
55685;BME280;41883;49.544;8.646;2023-05-02T15:10:27;101146.88;;;18.16;nan
55685;BME280;41883;49.544;8.646;2023-05-02T15:12:53;101152.28;;;18.23;nan
55685;BME280;41883;49.544;8.646;2023-05-02T15:15:18;101154.69;;;18.18;nan
55685;BME280;41883;49.544;8.646;2023-05-02T15:17:46;101167.16;;;18.25;nan
55685;BME280;41883;49.544;8.646;2023-05-02T15:20:12;101163.25;;;18.28;nan
55685;BME280;41883;49.544;8.646;2023-05-02T15:22:37;101170.31;;;18.14;nan
55685;BME280;41883;49.544;8.646;2023-05-02T15:25:02;101166.81;;;17.84;nan
55685;BME280;41883;49.544;8.646;2023-05-02T15:27:27;101168.25;;;17.57;nan
55685;BME280;41883;49.544;8.646;2023-05-02T15:29:53;101183.88;;;17.45;nan
55685;BME280;41883;49.544;8.646;2023-05-02T15:32:18;101177.47;;;17.31;nan
55685;BME280;41883;49.544;8.646;2023-05-02T15:34:43;101178.16;;;17.10;nan
55685;BME280;41883;49.544;8.646;2023-05-02T15:37:08;101179.50;;;17.06;nan
55685;BME280;41883;49.544;8.646;2023-05-02T15:39:34;101181.75;;;17.17;nan
55685;BME280;41883;49.544;8.646;2023-05-02T15:42:01;101167.88;;;17.75;nan
55685;BME280;41883;49.544;8.646;2023-05-02T15:44:27;101166.84;;;18.86;nan
55685;BME280;41883;49.544;8.646;2023-05-02T15:46:52;101177.09;;;19.69;nan
55685;BME280;41883;49.544;8.646;2023-05-02T15:49:26;101177.56;;;19.29;nan
55685;BME280;41883;49.544;8.646;2023-05-02T15:51:56;101168.22;;;19.19;nan
55685;BME280;41883;49.544;8.646;2023-05-02T15:54:21;101176.47;;;19.45;nan
55685;BME280;41883;49.544;8.646;2023-05-02T15:56:46;101172.41;;;19.56;nan
55685;BME280;41883;49.544;8.646;2023-05-02T15:59:11;101169.16;;;19.11;nan
55685;BME280;41883;49.544;8.646;2023-05-02T16:01:36;101178.25;;;18.74;nan
55685;BME280;41883;49.544;8.646;2023-05-02T16:04:03;101174.47;;;19.26;nan
55685;BME280;41883;49.544;8.646;2023-05-02T16:06:30;101175.72;;;19.58;nan
55685;BME280;41883;49.544;8.646;2023-05-02T16:08:56;101177.59;;;19.58;nan
55685;BME280;41883;49.544;8.646;2023-05-02T16:11:21;101180.06;;;19.81;nan
55685;BME280;41883;49.544;8.646;2023-05-02T16:13:46;101180.56;;;19.98;nan
55685;BME280;41883;49.544;8.646;2023-05-02T16:16:11;101177.41;;;19.87;nan
55685;BME280;41883;49.544;8.646;2023-05-02T16:18:37;101171.53;;;20.05;nan
55685;BME280;41883;49.544;8.646;2023-05-02T16:21:02;101179.56;;;19.49;nan